• Join FlightAware (Why Join?)
  • Login
  • US Flag 
08:04PM EST


 

Airport Tracker/Info


-or-


 

Live Flight TrackerFlight Track Log ✈ ASA250 ✈ 21-Apr-2013 ✈ KLAX - MMMX / MEX

Flight Track Log - Related Links

Times and Time Zones

All times are in EDT time to prevent confusion due to time zone crossing. See the ASA250 flight status page for this flight to view local times or setup timezone preferences in your user account.

Time Position Orientation Groundspeed Altitude Reporting Facility
EDT Latitude Longitude Course Direction KTS MPH feet Rate Location/Type
11:11AM 33.9333 -118.4500 239° Southwest 180 207 1,500  Level Southern California TRACON
11:12AM 33.9000 -118.5167 239° Southwest 244 281 3,200 1,560 Climbing Southern California TRACON
11:13AM 33.8353 -118.5364 194° South 268 308 4,900 1,860 Climbing Los Angeles Center
11:14AM 33.7617 -118.5264 174° South 269 310 7,200 2,220 Climbing Los Angeles Center
11:15AM 33.6947 -118.4828 152° Southeast 298 343 9,500 2,100 Climbing Los Angeles Center
11:16AM 33.6514 -118.3994 122° Southeast 299 344 11,600 2,040 Climbing Los Angeles Center
11:17AM 33.6272 -118.2697 103° East 343 395 13,700 1,860 Climbing Los Angeles Center
11:18AM 33.6025 -118.1497 104° East 371 427 15,500 1,920 Climbing Los Angeles Center
11:19AM 33.5647 -118.0242 110° East 399 459 17,700 2,160 Climbing Los Angeles Center
11:20AM 33.5228 -117.8964 111° Southeast 411 473 20,000 2,040 Climbing Los Angeles Center
11:21AM 33.4800 -117.7647 111° Southeast 423 487 21,900 1,800 Climbing Los Angeles Center
11:22AM 33.4361 -117.6272 111° Southeast 441 507 23,800 1,800 Climbing Los Angeles Center
11:23AM 33.3806 -117.4583 111° Southeast 456 525 25,600 1,440 Climbing Los Angeles Center
11:24AM 33.3336 -117.3119 111° Southeast 471 542 26,800 1,200 Climbing Los Angeles Center
11:25AM 33.2839 -117.1633 112° Southeast 481 554 28,100 1,260 Climbing Los Angeles Center
11:26AM 33.2350 -117.0142 111° Southeast 493 567 29,400 1,320 Climbing Los Angeles Center
11:27AM 33.1836 -116.8597 112° Southeast 498 573 30,900 1,440 Climbing Los Angeles Center
11:28AM 33.1344 -116.7083 111° Southeast 492 566 32,400 1,260 Climbing Los Angeles Center
11:29AM 33.0828 -116.5561 112° Southeast 491 565 33,600 1,200 Climbing Los Angeles Center
11:30AM 32.9536 -116.4436 144° Southeast 483 556 34,900 660 Climbing Los Angeles Center
11:31AM 32.8356 -116.3722 153° Southeast 478 550 35,000  Climbing Los Angeles Center
11:32AM 32.7336 -116.3003 149° Southeast 479 551 35,000  Level Los Angeles Center
11:33AM 32.6528 -116.1325 120° Southeast 495 570 35,000  Level Los Angeles Center
11:34AM 32.5914 -115.9894 117° Southeast 491 565 35,000  Level Los Angeles Center
11:36AM 32.5099 -115.8529 125° Southeast  Level FlightAware Approximate
11:43AM 31.9876 -114.9894 125° Southeast  Level FlightAware Approximate
11:44AM 31.9126 -114.8669 126° Southeast  Level FlightAware Approximate
11:45AM 31.8374 -114.7445 126° Southeast  Level FlightAware Approximate
11:46AM 31.7621 -114.6224 126° Southeast  Level FlightAware Approximate
11:47AM 31.6866 -114.5004 126° Southeast  Level FlightAware Approximate
11:48AM 31.6111 -114.3787 126° Southeast  Level FlightAware Approximate
11:49AM 31.5354 -114.2571 126° Southeast  Level FlightAware Approximate
11:50AM 31.4597 -114.1358 126° Southeast  Level FlightAware Approximate
11:51AM 31.3838 -114.0146 126° Southeast  Level FlightAware Approximate
11:52AM 31.3078 -113.8937 126° Southeast  Level FlightAware Approximate
11:53AM 31.2317 -113.7729 126° Southeast  Level FlightAware Approximate
11:54AM 31.1554 -113.6523 126° Southeast  Level FlightAware Approximate
11:55AM 31.0791 -113.5320 126° Southeast  Level FlightAware Approximate
11:56AM 31.0026 -113.4118 127° Southeast  Level FlightAware Approximate
11:57AM 30.9261 -113.2918 127° Southeast  Level FlightAware Approximate
11:58AM 30.8494 -113.1720 127° Southeast  Level FlightAware Approximate
11:59AM 30.7726 -113.0524 127° Southeast  Level FlightAware Approximate
12:00PM 30.6957 -112.9330 127° Southeast  Level FlightAware Approximate
12:01PM 30.6187 -112.8137 127° Southeast  Level FlightAware Approximate
12:02PM 30.5373 -112.6989 135° Southeast  Level FlightAware Approximate
12:03PM 30.4469 -112.5932 135° Southeast  Level FlightAware Approximate
12:04PM 30.3565 -112.4878 135° Southeast  Level FlightAware Approximate
12:05PM 30.2660 -112.3826 135° Southeast  Level FlightAware Approximate
12:06PM 30.1754 -112.2775 135° Southeast  Level FlightAware Approximate
12:07PM 30.0847 -112.1727 135° Southeast  Level FlightAware Approximate
12:08PM 29.9939 -112.0680 135° Southeast  Level FlightAware Approximate
12:09PM 29.9031 -111.9635 135° Southeast  Level FlightAware Approximate
12:10PM 29.8122 -111.8592 135° Southeast  Level FlightAware Approximate
12:11PM 29.7212 -111.7551 135° Southeast  Level FlightAware Approximate
12:12PM 29.6301 -111.6512 135° Southeast  Level FlightAware Approximate
12:13PM 29.5389 -111.5475 135° Southeast  Level FlightAware Approximate
12:14PM 29.4477 -111.4439 135° Southeast  Level FlightAware Approximate
12:15PM 29.3563 -111.3406 135° Southeast  Level FlightAware Approximate
12:16PM 29.2649 -111.2374 135° Southeast  Level FlightAware Approximate
12:17PM 29.1734 -111.1345 135° Southeast  Level FlightAware Approximate
12:18PM 29.0818 -111.0317 136° Southeast  Level FlightAware Approximate
12:19PM 28.9894 -110.9299 136° Southeast  Level FlightAware Approximate
12:20PM 28.8979 -110.8273 133° Southeast  Level FlightAware Approximate
12:21PM 28.8097 -110.7210 133° Southeast  Level FlightAware Approximate
12:22PM 28.7214 -110.6149 133° Southeast  Level FlightAware Approximate
12:23PM 28.6330 -110.5090 134° Southeast  Level FlightAware Approximate
12:24PM 28.5446 -110.4032 134° Southeast  Level FlightAware Approximate
12:25PM 28.4545 -110.2994 136° Southeast  Level FlightAware Approximate
12:26PM 28.3627 -110.1975 136° Southeast  Level FlightAware Approximate
12:27PM 28.2711 -110.0956 136° Southeast  Level FlightAware Approximate
12:28PM 28.1798 -109.9933 134° Southeast  Level FlightAware Approximate
12:29PM 28.0902 -109.8893 134° Southeast  Level FlightAware Approximate
12:30PM 28.0004 -109.7856 134° Southeast  Level FlightAware Approximate
12:31PM 27.9105 -109.6820 134° Southeast  Level FlightAware Approximate
12:32PM 27.8206 -109.5785 135° Southeast  Level FlightAware Approximate
12:33PM 27.7315 -109.4743 133° Southeast  Level FlightAware Approximate
12:34PM 27.6437 -109.3688 133° Southeast  Level FlightAware Approximate
12:35PM 27.5557 -109.2634 133° Southeast  Level FlightAware Approximate
12:36PM 27.4659 -109.1602 135° Southeast  Level FlightAware Approximate
12:37PM 27.3746 -109.0587 135° Southeast  Level FlightAware Approximate
12:38PM 27.2832 -108.9574 135° Southeast  Level FlightAware Approximate
12:39PM 27.1918 -108.8563 135° Southeast  Level FlightAware Approximate
12:40PM 27.1003 -108.7553 136° Southeast  Level FlightAware Approximate
12:41PM 27.0087 -108.6545 136° Southeast  Level FlightAware Approximate
12:42PM 26.9170 -108.5539 136° Southeast  Level FlightAware Approximate
12:43PM 26.8253 -108.4535 136° Southeast  Level FlightAware Approximate
12:44PM 26.7334 -108.3531 136° Southeast  Level FlightAware Approximate
12:45PM 26.6528 -108.2422 125° Southeast  Level FlightAware Approximate
12:46PM 26.5785 -108.1253 125° Southeast  Level FlightAware Approximate
12:47PM 26.5041 -108.0086 125° Southeast  Level FlightAware Approximate
12:48PM 26.4286 -107.8927 127° Southeast  Level FlightAware Approximate
12:49PM 26.3521 -107.7778 127° Southeast  Level FlightAware Approximate
12:50PM 26.2754 -107.6631 127° Southeast  Level FlightAware Approximate
12:51PM 26.1990 -107.5483 127° Southeast  Level FlightAware Approximate
12:52PM 26.1225 -107.4336 127° Southeast  Level FlightAware Approximate
12:53PM 26.0460 -107.3190 126° Southeast  Level FlightAware Approximate
12:54PM 25.9697 -107.2043 127° Southeast  Level FlightAware Approximate
12:55PM 25.8933 -107.0898 127° Southeast  Level FlightAware Approximate
12:56PM 25.8175 -106.9748 126° Southeast  Level FlightAware Approximate
12:57PM 25.7420 -106.8597 126° Southeast  Level FlightAware Approximate
12:58PM 25.6664 -106.7447 126° Southeast  Level FlightAware Approximate
12:59PM 25.5907 -106.6298 126° Southeast  Level FlightAware Approximate
01:00PM 25.5150 -106.5151 126° Southeast  Level FlightAware Approximate
01:01PM 25.4391 -106.4006 126° Southeast  Level FlightAware Approximate
01:02PM 25.3625 -106.2867 127° Southeast  Level FlightAware Approximate
01:03PM 25.2855 -106.1733 127° Southeast  Level FlightAware Approximate
01:04PM 25.2084 -106.0600 127° Southeast  Level FlightAware Approximate
01:05PM 25.1311 -105.9469 129° Southeast  Level FlightAware Approximate
01:06PM 25.0509 -105.8364 129° Southeast  Level FlightAware Approximate
01:07PM 24.9706 -105.7260 129° Southeast  Level FlightAware Approximate
01:08PM 24.8903 -105.6157 129° Southeast  Level FlightAware Approximate
01:09PM 24.8147 -105.5016 125° Southeast  Level FlightAware Approximate
01:10PM 24.7397 -105.3872 131° Southeast  Level FlightAware Approximate
01:11PM 24.6550 -105.2812 131° Southeast  Level FlightAware Approximate
01:12PM 24.5741 -105.1719 127° Southeast  Level FlightAware Approximate
01:13PM 24.4963 -105.0598 127° Southeast  Level FlightAware Approximate
01:14PM 24.4184 -104.9479 127° Southeast  Level FlightAware Approximate
01:15PM 24.3404 -104.8361 127° Southeast  Level FlightAware Approximate
01:16PM 24.2624 -104.7244 127° Southeast  Level FlightAware Approximate
01:17PM 24.1842 -104.6129 128° Southeast  Level FlightAware Approximate
01:18PM 24.1064 -104.5012 126° Southeast  Level FlightAware Approximate
01:19PM 24.0307 -104.3877 126° Southeast  Level FlightAware Approximate
01:20PM 23.9552 -104.2743 126° Southeast  Level FlightAware Approximate
01:21PM 23.8804 -104.1604 125° Southeast  Level FlightAware Approximate
01:22PM 23.8064 -104.0459 125° Southeast  Level FlightAware Approximate
01:23PM 23.7323 -103.9315 125° Southeast  Level FlightAware Approximate
01:24PM 23.6581 -103.8172 125° Southeast  Level FlightAware Approximate
01:25PM 23.5839 -103.7031 125° Southeast  Level FlightAware Approximate
01:26PM 23.5092 -103.5893 127° Southeast  Level FlightAware Approximate
01:27PM 23.4319 -103.4778 127° Southeast  Level FlightAware Approximate
01:28PM 23.3544 -103.3664 127° Southeast  Level FlightAware Approximate
01:29PM 23.2768 -103.2552 127° Southeast  Level FlightAware Approximate
01:30PM 23.1992 -103.1441 127° Southeast  Level FlightAware Approximate
01:31PM 23.1217 -103.0329 126° Southeast  Level FlightAware Approximate
01:32PM 23.0455 -102.9208 126° Southeast  Level FlightAware Approximate
01:33PM 22.9691 -102.8089 127° Southeast  Level FlightAware Approximate
01:34PM 22.8927 -102.6970 127° Southeast  Level FlightAware Approximate
01:35PM 22.8043 -102.5964 135° Southeast  Level FlightAware Approximate
01:36PM 22.7141 -102.4975 135° Southeast  Level FlightAware Approximate
01:37PM 22.6239 -102.3987 135° Southeast  Level FlightAware Approximate
01:38PM 22.5336 -102.3001 135° Southeast  Level FlightAware Approximate
01:39PM 22.4433 -102.2015 135° Southeast  Level FlightAware Approximate
01:40PM 22.3529 -102.1031 135° Southeast  Level FlightAware Approximate
01:41PM 22.2644 -102.0029 134° Southeast  Level FlightAware Approximate
01:42PM 22.1758 -101.9026 134° Southeast  Level FlightAware Approximate
01:43PM 22.0872 -101.8025 134° Southeast  Level FlightAware Approximate
01:44PM 21.9986 -101.7025 134° Southeast  Level FlightAware Approximate
01:45PM 21.9099 -101.6027 134° Southeast  Level FlightAware Approximate
01:46PM 21.8211 -101.5029 134° Southeast  Level FlightAware Approximate
01:47PM 21.7325 -101.4031 134° Southeast  Level FlightAware Approximate
01:48PM 21.6434 -101.3038 134° Southeast  Level FlightAware Approximate
01:49PM 21.5542 -101.2047 134° Southeast  Level FlightAware Approximate
01:50PM 21.4606 -101.1105 137° Southeast  Level FlightAware Approximate
01:51PM 21.3684 -101.0148 134° Southeast  Level FlightAware Approximate
01:52PM 21.2794 -100.9157 134° Southeast  Level FlightAware Approximate
01:53PM 21.1903 -100.8167 134° Southeast  Level FlightAware Approximate
01:54PM 21.1011 -100.7179 134° Southeast  Level FlightAware Approximate
01:55PM 21.0105 -100.6206 135° Southeast  Level FlightAware Approximate
01:56PM 20.9198 -100.5235 135° Southeast  Level FlightAware Approximate
01:57PM 20.8321 -100.4235 131° Southeast  Level FlightAware Approximate
01:58PM 20.7354 -100.3349 145° Southeast  Level FlightAware Approximate
01:59PM 20.6484 -100.2343 132° Southeast  Level FlightAware Approximate
02:00PM 20.5698 -100.1270 132° Southeast  Level FlightAware Approximate
02:01PM 20.4888 -100.0209 127° Southeast  Level FlightAware Approximate
02:02PM 20.4111 -99.9121 127° Southeast  Level FlightAware Approximate
02:03PM 20.3310 -99.8053 130° Southeast  Level FlightAware Approximate
02:04PM 20.2479 -99.7012 130° Southeast  Level FlightAware Approximate
02:05PM 20.1647 -99.5972 130° Southeast  Level FlightAware Approximate
02:06PM 20.0814 -99.4933 130° Southeast  Level FlightAware Approximate
02:07PM 20.0020 -99.3863 125° Southeast  Level FlightAware Approximate
02:08PM 19.9288 -99.2743 118° Southeast  Level FlightAware Approximate
02:09PM 19.8469 -99.1703 133° Southeast  Level FlightAware Approximate
02:10PM 19.7657 -99.0652 125° Southeast  Level FlightAware Approximate
02:11PM 19.6629 -99.0333 180° South  Level FlightAware Approximate
02:12PM 19.5355 -99.0429 191° South  Level FlightAware Approximate
02:13PM 19.4363 -99.0721 191° South  Level Estimated
02:14PM 19.4363 -99.0721 191° South  Level Estimated
02:15PM 19.4363 -99.0721 191° South  Level Estimated
02:16PM 19.4363 -99.0721 191° South  Level Estimated
02:17PM 19.4363 -99.0721 191° South  Level Estimated
02:18PM 19.4363 -99.0721 191° South  Level Estimated
02:19PM 19.4363 -99.0721 191° South  Level Estimated